sensor_id;sensor_type;location;lat;lon;timestamp;P1;durP1;ratioP1;P2;durP2;ratioP2
71148;SDS011;59072;42.144;25.200;2023-07-20T00:02:06;10.13;;;6.57;;
71148;SDS011;59072;42.144;25.200;2023-07-20T00:04:33;9.40;;;6.32;;
71148;SDS011;59072;42.144;25.200;2023-07-20T00:06:58;10.73;;;7.00;;
71148;SDS011;59072;42.144;25.200;2023-07-20T00:09:27;11.70;;;7.20;;
71148;SDS011;59072;42.144;25.200;2023-07-20T00:11:55;10.35;;;6.82;;
71148;SDS011;59072;42.144;25.200;2023-07-20T00:14:20;11.85;;;8.25;;
71148;SDS011;59072;42.144;25.200;2023-07-20T00:16:46;10.60;;;7.25;;
71148;SDS011;59072;42.144;25.200;2023-07-20T00:19:12;10.68;;;6.82;;
71148;SDS011;59072;42.144;25.200;2023-07-20T00:21:38;10.68;;;7.28;;
71148;SDS011;59072;42.144;25.200;2023-07-20T00:24:05;14.38;;;7.20;;
71148;SDS011;59072;42.144;25.200;2023-07-20T00:26:31;11.95;;;7.30;;
71148;SDS011;59072;42.144;25.200;2023-07-20T00:28:59;13.32;;;6.90;;
71148;SDS011;59072;42.144;25.200;2023-07-20T00:31:31;11.45;;;7.82;;
71148;SDS011;59072;42.144;25.200;2023-07-20T00:33:57;10.95;;;8.27;;
71148;SDS011;59072;42.144;25.200;2023-07-20T00:36:22;12.00;;;6.70;;
71148;SDS011;59072;42.144;25.200;2023-07-20T00:38:48;11.85;;;6.90;;
71148;SDS011;59072;42.144;25.200;2023-07-20T00:41:13;10.55;;;6.70;;
71148;SDS011;59072;42.144;25.200;2023-07-20T00:43:39;14.18;;;6.60;;
71148;SDS011;59072;42.144;25.200;2023-07-20T00:46:05;14.48;;;7.47;;
71148;SDS011;59072;42.144;25.200;2023-07-20T00:48:31;12.48;;;7.00;;
71148;SDS011;59072;42.144;25.200;2023-07-20T00:50:58;12.45;;;7.28;;
71148;SDS011;59072;42.144;25.200;2023-07-20T00:53:27;9.57;;;7.43;;
71148;SDS011;59072;42.144;25.200;2023-07-20T00:55:53;11.82;;;6.70;;
71148;SDS011;59072;42.144;25.200;2023-07-20T00:58:18;9.25;;;7.03;;
71148;SDS011;59072;42.144;25.200;2023-07-20T01:00:44;11.60;;;7.63;;
71148;SDS011;59072;42.144;25.200;2023-07-20T01:03:10;10.13;;;6.88;;
71148;SDS011;59072;42.144;25.200;2023-07-20T01:05:40;10.57;;;6.97;;
71148;SDS011;59072;42.144;25.200;2023-07-20T01:08:18;11.05;;;7.40;;
71148;SDS011;59072;42.144;25.200;2023-07-20T01:10:58;10.95;;;6.97;;
71148;SDS011;59072;42.144;25.200;2023-07-20T01:13:31;12.07;;;7.55;;
71148;SDS011;59072;42.144;25.200;2023-07-20T01:16:00;13.43;;;7.68;;
71148;SDS011;59072;42.144;25.200;2023-07-20T01:18:28;11.63;;;7.95;;
71148;SDS011;59072;42.144;25.200;2023-07-20T01:20:56;10.63;;;7.82;;
71148;SDS011;59072;42.144;25.200;2023-07-20T01:31:54;12.85;;;8.18;;
71148;SDS011;59072;42.144;25.200;2023-07-20T01:34:24;10.95;;;8.18;;
71148;SDS011;59072;42.144;25.200;2023-07-20T01:36:52;10.67;;;7.87;;
71148;SDS011;59072;42.144;25.200;2023-07-20T01:39:19;14.02;;;8.10;;
71148;SDS011;59072;42.144;25.200;2023-07-20T01:41:46;11.45;;;7.57;;
71148;SDS011;59072;42.144;25.200;2023-07-20T01:44:12;10.02;;;7.18;;
71148;SDS011;59072;42.144;25.200;2023-07-20T01:46:38;10.23;;;7.18;;
71148;SDS011;59072;42.144;25.200;2023-07-20T01:49:03;10.88;;;6.95;;
71148;SDS011;59072;42.144;25.200;2023-07-20T01:53:56;11.20;;;7.30;;
71148;SDS011;59072;42.144;25.200;2023-07-20T01:56:24;11.73;;;7.47;;
71148;SDS011;59072;42.144;25.200;2023-07-20T01:58:52;10.40;;;6.55;;
71148;SDS011;59072;42.144;25.200;2023-07-20T02:01:18;13.73;;;7.40;;
71148;SDS011;59072;42.144;25.200;2023-07-20T02:03:43;12.02;;;7.50;;
71148;SDS011;59072;42.144;25.200;2023-07-20T02:06:08;10.38;;;7.13;;
71148;SDS011;59072;42.144;25.200;2023-07-20T02:08:37;10.30;;;6.35;;
71148;SDS011;59072;42.144;25.200;2023-07-20T02:11:04;10.95;;;6.78;;
71148;SDS011;59072;42.144;25.200;2023-07-20T02:13:30;11.18;;;7.43;;
71148;SDS011;59072;42.144;25.200;2023-07-20T02:15:55;10.98;;;7.10;;
71148;SDS011;59072;42.144;25.200;2023-07-20T02:18:21;13.63;;;7.53;;
71148;SDS011;59072;42.144;25.200;2023-07-20T02:20:46;11.45;;;7.00;;
71148;SDS011;59072;42.144;25.200;2023-07-20T02:23:11;10.13;;;6.82;;
71148;SDS011;59072;42.144;25.200;2023-07-20T02:25:37;11.73;;;7.22;;
71148;SDS011;59072;42.144;25.200;2023-07-20T02:28:03;11.90;;;7.28;;
71148;SDS011;59072;42.144;25.200;2023-07-20T02:30:31;13.25;;;7.63;;
71148;SDS011;59072;42.144;25.200;2023-07-20T02:33:00;11.52;;;7.25;;
71148;SDS011;59072;42.144;25.200;2023-07-20T02:35:25;10.82;;;7.18;;
71148;SDS011;59072;42.144;25.200;2023-07-20T02:37:53;13.70;;;7.35;;
71148;SDS011;59072;42.144;25.200;2023-07-20T02:40:18;32.03;;;9.75;;
71148;SDS011;59072;42.144;25.200;2023-07-20T02:42:44;35.30;;;8.25;;
71148;SDS011;59072;42.144;25.200;2023-07-20T02:45:12;32.22;;;8.90;;
71148;SDS011;59072;42.144;25.200;2023-07-20T02:47:37;23.42;;;8.57;;
71148;SDS011;59072;42.144;25.200;2023-07-20T02:50:03;23.15;;;9.40;;
71148;SDS011;59072;42.144;25.200;2023-07-20T02:52:30;13.30;;;7.68;;
71148;SDS011;59072;42.144;25.200;2023-07-20T02:54:56;19.90;;;7.88;;
71148;SDS011;59072;42.144;25.200;2023-07-20T02:57:21;18.10;;;8.52;;
71148;SDS011;59072;42.144;25.200;2023-07-20T02:59:47;17.98;;;7.60;;
71148;SDS011;59072;42.144;25.200;2023-07-20T03:02:12;20.08;;;7.53;;
71148;SDS011;59072;42.144;25.200;2023-07-20T03:04:38;18.20;;;8.20;;
71148;SDS011;59072;42.144;25.200;2023-07-20T03:07:04;19.00;;;8.65;;
71148;SDS011;59072;42.144;25.200;2023-07-20T03:09:30;19.85;;;8.90;;
71148;SDS011;59072;42.144;25.200;2023-07-20T03:12:01;18.48;;;8.68;;
71148;SDS011;59072;42.144;25.200;2023-07-20T03:14:27;19.88;;;8.05;;
71148;SDS011;59072;42.144;25.200;2023-07-20T03:16:55;17.05;;;8.25;;
71148;SDS011;59072;42.144;25.200;2023-07-20T03:21:45;14.95;;;8.27;;
71148;SDS011;59072;42.144;25.200;2023-07-20T03:24:11;14.73;;;7.05;;
71148;SDS011;59072;42.144;25.200;2023-07-20T03:26:39;26.20;;;8.20;;
71148;SDS011;59072;42.144;25.200;2023-07-20T03:29:08;12.50;;;7.70;;
71148;SDS011;59072;42.144;25.200;2023-07-20T03:31:33;13.90;;;7.70;;
71148;SDS011;59072;42.144;25.200;2023-07-20T03:33:59;12.80;;;7.55;;
71148;SDS011;59072;42.144;25.200;2023-07-20T03:36:24;19.27;;;7.70;;
71148;SDS011;59072;42.144;25.200;2023-07-20T03:38:49;12.38;;;7.03;;
71148;SDS011;59072;42.144;25.200;2023-07-20T03:41:15;12.18;;;7.40;;
71148;SDS011;59072;42.144;25.200;2023-07-20T03:43:41;15.95;;;7.88;;
71148;SDS011;59072;42.144;25.200;2023-07-20T03:46:06;11.20;;;7.07;;
71148;SDS011;59072;42.144;25.200;2023-07-20T03:48:35;21.35;;;7.55;;
71148;SDS011;59072;42.144;25.200;2023-07-20T03:51:02;14.77;;;7.75;;
71148;SDS011;59072;42.144;25.200;2023-07-20T03:53:27;15.25;;;7.60;;
71148;SDS011;59072;42.144;25.200;2023-07-20T03:55:53;12.45;;;8.05;;
71148;SDS011;59072;42.144;25.200;2023-07-20T03:58:19;15.30;;;8.48;;
71148;SDS011;59072;42.144;25.200;2023-07-20T04:00:48;13.57;;;7.95;;
71148;SDS011;59072;42.144;25.200;2023-07-20T04:03:16;14.32;;;8.50;;
71148;SDS011;59072;42.144;25.200;2023-07-20T04:05:42;10.57;;;7.20;;
71148;SDS011;59072;42.144;25.200;2023-07-20T04:08:08;10.73;;;7.55;;
71148;SDS011;59072;42.144;25.200;2023-07-20T04:10:34;16.42;;;8.90;;
71148;SDS011;59072;42.144;25.200;2023-07-20T04:13:00;13.25;;;8.05;;
71148;SDS011;59072;42.144;25.200;2023-07-20T04:15:26;13.00;;;7.53;;
71148;SDS011;59072;42.144;25.200;2023-07-20T04:17:51;14.00;;;7.18;;
71148;SDS011;59072;42.144;25.200;2023-07-20T04:20:17;13.07;;;7.43;;
71148;SDS011;59072;42.144;25.200;2023-07-20T04:22:43;12.00;;;7.07;;
71148;SDS011;59072;42.144;25.200;2023-07-20T04:25:11;14.35;;;7.90;;
71148;SDS011;59072;42.144;25.200;2023-07-20T04:27:37;11.48;;;6.93;;
71148;SDS011;59072;42.144;25.200;2023-07-20T04:30:02;12.55;;;7.47;;
71148;SDS011;59072;42.144;25.200;2023-07-20T04:32:28;17.85;;;7.82;;
71148;SDS011;59072;42.144;25.200;2023-07-20T04:34:54;14.95;;;8.98;;
71148;SDS011;59072;42.144;25.200;2023-07-20T04:37:19;11.07;;;7.55;;
71148;SDS011;59072;42.144;25.200;2023-07-20T04:39:45;12.63;;;7.82;;
71148;SDS011;59072;42.144;25.200;2023-07-20T04:42:10;12.73;;;8.13;;
71148;SDS011;59072;42.144;25.200;2023-07-20T04:44:36;14.52;;;7.90;;
71148;SDS011;59072;42.144;25.200;2023-07-20T04:47:01;13.82;;;7.88;;
71148;SDS011;59072;42.144;25.200;2023-07-20T04:49:28;12.15;;;7.35;;
71148;SDS011;59072;42.144;25.200;2023-07-20T04:51:55;11.70;;;8.32;;
71148;SDS011;59072;42.144;25.200;2023-07-20T04:54:21;15.05;;;7.80;;
71148;SDS011;59072;42.144;25.200;2023-07-20T04:56:46;12.13;;;8.88;;
71148;SDS011;59072;42.144;25.200;2023-07-20T04:59:14;10.10;;;7.57;;
71148;SDS011;59072;42.144;25.200;2023-07-20T05:01:39;13.88;;;7.93;;
71148;SDS011;59072;42.144;25.200;2023-07-20T05:04:05;14.15;;;7.45;;
71148;SDS011;59072;42.144;25.200;2023-07-20T05:06:30;9.88;;;7.50;;
71148;SDS011;59072;42.144;25.200;2023-07-20T05:08:56;11.02;;;7.80;;
71148;SDS011;59072;42.144;25.200;2023-07-20T05:13:48;11.97;;;7.23;;
71148;SDS011;59072;42.144;25.200;2023-07-20T05:16:14;15.07;;;7.65;;
71148;SDS011;59072;42.144;25.200;2023-07-20T05:18:39;14.32;;;7.78;;
71148;SDS011;59072;42.144;25.200;2023-07-20T05:21:05;9.82;;;7.85;;
71148;SDS011;59072;42.144;25.200;2023-07-20T05:23:31;11.77;;;7.68;;
71148;SDS011;59072;42.144;25.200;2023-07-20T05:25:57;17.77;;;8.10;;
71148;SDS011;59072;42.144;25.200;2023-07-20T05:28:24;13.00;;;7.67;;
71148;SDS011;59072;42.144;25.200;2023-07-20T05:30:50;14.88;;;7.55;;
71148;SDS011;59072;42.144;25.200;2023-07-20T05:33:19;10.85;;;7.15;;
71148;SDS011;59072;42.144;25.200;2023-07-20T05:35:45;11.70;;;7.63;;
71148;SDS011;59072;42.144;25.200;2023-07-20T05:38:11;15.10;;;8.77;;
71148;SDS011;59072;42.144;25.200;2023-07-20T05:40:37;14.57;;;8.00;;
71148;SDS011;59072;42.144;25.200;2023-07-20T05:43:03;15.38;;;8.32;;
71148;SDS011;59072;42.144;25.200;2023-07-20T05:45:28;14.48;;;8.45;;
71148;SDS011;59072;42.144;25.200;2023-07-20T05:47:54;16.40;;;8.90;;
71148;SDS011;59072;42.144;25.200;2023-07-20T05:50:19;12.55;;;7.95;;
71148;SDS011;59072;42.144;25.200;2023-07-20T05:52:52;13.30;;;8.73;;
71148;SDS011;59072;42.144;25.200;2023-07-20T05:55:20;14.35;;;8.25;;
71148;SDS011;59072;42.144;25.200;2023-07-20T05:57:46;12.10;;;8.10;;
71148;SDS011;59072;42.144;25.200;2023-07-20T06:00:13;14.73;;;7.83;;
71148;SDS011;59072;42.144;25.200;2023-07-20T06:02:40;13.60;;;8.30;;
71148;SDS011;59072;42.144;25.200;2023-07-20T06:05:08;16.30;;;7.38;;
71148;SDS011;59072;42.144;25.200;2023-07-20T06:07:50;13.52;;;7.93;;
71148;SDS011;59072;42.144;25.200;2023-07-20T06:10:16;14.18;;;7.63;;
71148;SDS011;59072;42.144;25.200;2023-07-20T06:12:41;14.95;;;7.50;;
71148;SDS011;59072;42.144;25.200;2023-07-20T06:15:16;14.02;;;8.43;;
71148;SDS011;59072;42.144;25.200;2023-07-20T06:17:50;13.60;;;7.13;;
71148;SDS011;59072;42.144;25.200;2023-07-20T06:20:15;13.98;;;6.80;;
71148;SDS011;59072;42.144;25.200;2023-07-20T06:22:41;13.20;;;7.13;;
71148;SDS011;59072;42.144;25.200;2023-07-20T06:25:06;14.52;;;6.70;;
71148;SDS011;59072;42.144;25.200;2023-07-20T06:27:32;14.88;;;7.38;;
71148;SDS011;59072;42.144;25.200;2023-07-20T06:30:05;13.52;;;7.00;;
71148;SDS011;59072;42.144;25.200;2023-07-20T06:32:31;10.32;;;6.88;;
71148;SDS011;59072;42.144;25.200;2023-07-20T06:34:57;9.98;;;6.70;;
71148;SDS011;59072;42.144;25.200;2023-07-20T06:37:23;10.23;;;6.65;;
71148;SDS011;59072;42.144;25.200;2023-07-20T06:39:49;11.35;;;5.72;;
71148;SDS011;59072;42.144;25.200;2023-07-20T06:42:14;12.40;;;7.25;;
71148;SDS011;59072;42.144;25.200;2023-07-20T06:44:39;11.77;;;6.82;;
71148;SDS011;59072;42.144;25.200;2023-07-20T06:47:05;9.65;;;6.18;;
71148;SDS011;59072;42.144;25.200;2023-07-20T06:49:33;11.77;;;5.90;;
71148;SDS011;59072;42.144;25.200;2023-07-20T06:51:59;10.90;;;6.22;;
71148;SDS011;59072;42.144;25.200;2023-07-20T06:54:24;8.38;;;6.07;;
71148;SDS011;59072;42.144;25.200;2023-07-20T06:56:50;13.15;;;6.40;;
71148;SDS011;59072;42.144;25.200;2023-07-20T06:59:16;9.93;;;6.00;;
71148;SDS011;59072;42.144;25.200;2023-07-20T07:01:41;13.25;;;9.45;;
71148;SDS011;59072;42.144;25.200;2023-07-20T07:04:06;13.65;;;8.05;;
71148;SDS011;59072;42.144;25.200;2023-07-20T07:06:32;11.60;;;8.75;;
71148;SDS011;59072;42.144;25.200;2023-07-20T07:08:58;10.10;;;7.28;;
71148;SDS011;59072;42.144;25.200;2023-07-20T07:11:33;10.02;;;7.75;;
71148;SDS011;59072;42.144;25.200;2023-07-20T07:13:59;12.55;;;7.10;;
71148;SDS011;59072;42.144;25.200;2023-07-20T07:16:26;10.88;;;7.10;;
71148;SDS011;59072;42.144;25.200;2023-07-20T07:18:52;12.38;;;7.40;;
71148;SDS011;59072;42.144;25.200;2023-07-20T07:21:17;13.75;;;8.40;;
71148;SDS011;59072;42.144;25.200;2023-07-20T07:23:43;12.27;;;7.75;;
71148;SDS011;59072;42.144;25.200;2023-07-20T07:26:09;11.85;;;6.97;;
71148;SDS011;59072;42.144;25.200;2023-07-20T07:28:34;13.80;;;6.85;;
71148;SDS011;59072;42.144;25.200;2023-07-20T07:31:00;9.40;;;6.50;;
71148;SDS011;59072;42.144;25.200;2023-07-20T07:33:28;11.32;;;6.68;;
71148;SDS011;59072;42.144;25.200;2023-07-20T07:35:53;7.88;;;6.00;;
71148;SDS011;59072;42.144;25.200;2023-07-20T07:38:19;10.23;;;6.30;;
71148;SDS011;59072;42.144;25.200;2023-07-20T07:40:47;10.20;;;7.80;;
71148;SDS011;59072;42.144;25.200;2023-07-20T07:43:15;9.45;;;6.82;;
71148;SDS011;59072;42.144;25.200;2023-07-20T07:45:41;12.73;;;6.80;;
71148;SDS011;59072;42.144;25.200;2023-07-20T07:48:09;12.93;;;6.60;;
71148;SDS011;59072;42.144;25.200;2023-07-20T07:50:37;9.85;;;6.53;;
71148;SDS011;59072;42.144;25.200;2023-07-20T07:53:05;9.95;;;6.85;;
71148;SDS011;59072;42.144;25.200;2023-07-20T07:55:32;10.07;;;6.80;;
71148;SDS011;59072;42.144;25.200;2023-07-20T07:58:00;10.32;;;6.22;;
71148;SDS011;59072;42.144;25.200;2023-07-20T08:00:27;11.52;;;6.80;;
71148;SDS011;59072;42.144;25.200;2023-07-20T08:02:55;13.38;;;8.70;;
71148;SDS011;59072;42.144;25.200;2023-07-20T08:05:23;10.10;;;6.13;;
71148;SDS011;59072;42.144;25.200;2023-07-20T08:07:49;11.88;;;6.78;;
71148;SDS011;59072;42.144;25.200;2023-07-20T08:10:14;10.98;;;6.55;;
71148;SDS011;59072;42.144;25.200;2023-07-20T08:12:40;12.30;;;5.90;;
71148;SDS011;59072;42.144;25.200;2023-07-20T08:15:05;10.20;;;6.43;;
71148;SDS011;59072;42.144;25.200;2023-07-20T08:17:34;13.25;;;6.45;;
71148;SDS011;59072;42.144;25.200;2023-07-20T08:19:59;10.77;;;5.95;;
71148;SDS011;59072;42.144;25.200;2023-07-20T08:22:25;13.48;;;6.20;;
71148;SDS011;59072;42.144;25.200;2023-07-20T08:24:53;11.32;;;7.10;;
71148;SDS011;59072;42.144;25.200;2023-07-20T08:27:18;8.50;;;6.18;;
71148;SDS011;59072;42.144;25.200;2023-07-20T08:29:44;11.68;;;6.40;;
71148;SDS011;59072;42.144;25.200;2023-07-20T08:32:09;9.20;;;6.28;;
71148;SDS011;59072;42.144;25.200;2023-07-20T08:34:35;9.23;;;6.43;;
71148;SDS011;59072;42.144;25.200;2023-07-20T08:37:00;11.15;;;6.28;;
71148;SDS011;59072;42.144;25.200;2023-07-20T08:39:26;10.77;;;6.28;;
71148;SDS011;59072;42.144;25.200;2023-07-20T08:41:51;8.45;;;6.20;;
71148;SDS011;59072;42.144;25.200;2023-07-20T08:44:17;8.02;;;5.90;;
71148;SDS011;59072;42.144;25.200;2023-07-20T08:46:42;10.27;;;6.60;;
71148;SDS011;59072;42.144;25.200;2023-07-20T08:49:09;10.30;;;6.55;;
71148;SDS011;59072;42.144;25.200;2023-07-20T08:51:36;9.52;;;5.78;;
71148;SDS011;59072;42.144;25.200;2023-07-20T08:54:02;8.13;;;5.90;;
71148;SDS011;59072;42.144;25.200;2023-07-20T08:56:30;9.85;;;6.45;;
71148;SDS011;59072;42.144;25.200;2023-07-20T08:58:58;9.85;;;6.80;;
71148;SDS011;59072;42.144;25.200;2023-07-20T09:01:24;10.25;;;6.93;;
71148;SDS011;59072;42.144;25.200;2023-07-20T09:03:54;10.25;;;6.13;;
71148;SDS011;59072;42.144;25.200;2023-07-20T09:06:19;9.68;;;6.28;;
71148;SDS011;59072;42.144;25.200;2023-07-20T09:08:47;11.98;;;6.40;;
71148;SDS011;59072;42.144;25.200;2023-07-20T09:11:13;11.15;;;6.13;;
71148;SDS011;59072;42.144;25.200;2023-07-20T09:13:42;12.48;;;7.10;;
71148;SDS011;59072;42.144;25.200;2023-07-20T09:16:07;9.88;;;6.43;;
71148;SDS011;59072;42.144;25.200;2023-07-20T09:18:35;12.98;;;6.60;;
71148;SDS011;59072;42.144;25.200;2023-07-20T09:21:02;8.60;;;6.10;;
71148;SDS011;59072;42.144;25.200;2023-07-20T09:23:35;12.85;;;6.32;;
71148;SDS011;59072;42.144;25.200;2023-07-20T09:26:09;9.80;;;6.03;;
71148;SDS011;59072;42.144;25.200;2023-07-20T09:28:42;10.50;;;6.40;;
71148;SDS011;59072;42.144;25.200;2023-07-20T09:31:18;10.52;;;6.40;;
71148;SDS011;59072;42.144;25.200;2023-07-20T09:33:45;10.43;;;6.50;;
71148;SDS011;59072;42.144;25.200;2023-07-20T09:36:12;11.15;;;6.15;;
71148;SDS011;59072;42.144;25.200;2023-07-20T09:38:38;10.23;;;6.05;;
71148;SDS011;59072;42.144;25.200;2023-07-20T09:41:07;10.35;;;6.75;;
71148;SDS011;59072;42.144;25.200;2023-07-20T09:43:36;11.77;;;6.88;;
71148;SDS011;59072;42.144;25.200;2023-07-20T09:46:01;11.00;;;6.13;;
71148;SDS011;59072;42.144;25.200;2023-07-20T09:48:29;10.45;;;6.50;;
71148;SDS011;59072;42.144;25.200;2023-07-20T09:50:55;11.30;;;6.35;;
71148;SDS011;59072;42.144;25.200;2023-07-20T09:53:24;9.60;;;6.25;;
71148;SDS011;59072;42.144;25.200;2023-07-20T09:55:53;12.70;;;6.80;;
71148;SDS011;59072;42.144;25.200;2023-07-20T09:58:19;8.52;;;6.13;;
71148;SDS011;59072;42.144;25.200;2023-07-20T10:00:45;7.50;;;6.00;;
71148;SDS011;59072;42.144;25.200;2023-07-20T10:03:19;11.02;;;6.30;;
71148;SDS011;59072;42.144;25.200;2023-07-20T10:05:54;11.25;;;5.93;;
71148;SDS011;59072;42.144;25.200;2023-07-20T10:08:28;9.32;;;6.13;;
71148;SDS011;59072;42.144;25.200;2023-07-20T10:10:55;10.07;;;6.03;;
71148;SDS011;59072;42.144;25.200;2023-07-20T10:13:29;12.00;;;6.78;;
71148;SDS011;59072;42.144;25.200;2023-07-20T10:16:01;11.25;;;5.93;;
71148;SDS011;59072;42.144;25.200;2023-07-20T10:21:20;11.45;;;5.70;;
71148;SDS011;59072;42.144;25.200;2023-07-20T10:23:51;8.13;;;5.07;;
71148;SDS011;59072;42.144;25.200;2023-07-20T10:26:20;9.68;;;6.38;;
71148;SDS011;59072;42.144;25.200;2023-07-20T10:28:46;11.82;;;5.95;;
71148;SDS011;59072;42.144;25.200;2023-07-20T10:31:12;10.17;;;5.80;;
71148;SDS011;59072;42.144;25.200;2023-07-20T10:33:38;7.18;;;5.57;;
71148;SDS011;59072;42.144;25.200;2023-07-20T10:36:05;8.80;;;6.03;;
71148;SDS011;59072;42.144;25.200;2023-07-20T10:38:52;8.38;;;5.57;;
71148;SDS011;59072;42.144;25.200;2023-07-20T10:43:59;10.73;;;5.60;;
71148;SDS011;59072;42.144;25.200;2023-07-20T10:49:08;8.93;;;5.70;;
71148;SDS011;59072;42.144;25.200;2023-07-20T10:51:44;14.80;;;5.80;;
71148;SDS011;59072;42.144;25.200;2023-07-20T10:56:48;10.70;;;5.55;;
71148;SDS011;59072;42.144;25.200;2023-07-20T10:59:19;10.10;;;5.90;;
71148;SDS011;59072;42.144;25.200;2023-07-20T11:02:05;11.47;;;5.00;;
71148;SDS011;59072;42.144;25.200;2023-07-20T11:04:49;11.80;;;5.30;;
71148;SDS011;59072;42.144;25.200;2023-07-20T11:07:15;10.20;;;5.05;;
71148;SDS011;59072;42.144;25.200;2023-07-20T11:10:14;10.38;;;4.68;;
71148;SDS011;59072;42.144;25.200;2023-07-20T11:12:40;8.95;;;4.45;;
71148;SDS011;59072;42.144;25.200;2023-07-20T11:15:06;11.37;;;5.57;;
71148;SDS011;59072;42.144;25.200;2023-07-20T11:17:37;12.18;;;4.53;;
71148;SDS011;59072;42.144;25.200;2023-07-20T11:20:10;10.82;;;4.68;;
71148;SDS011;59072;42.144;25.200;2023-07-20T11:22:38;11.43;;;5.05;;
71148;SDS011;59072;42.144;25.200;2023-07-20T11:25:04;10.83;;;5.00;;
71148;SDS011;59072;42.144;25.200;2023-07-20T11:27:30;10.52;;;5.15;;
71148;SDS011;59072;42.144;25.200;2023-07-20T11:29:56;10.57;;;4.40;;
71148;SDS011;59072;42.144;25.200;2023-07-20T11:32:24;6.45;;;4.60;;
71148;SDS011;59072;42.144;25.200;2023-07-20T11:34:50;10.57;;;4.30;;
71148;SDS011;59072;42.144;25.200;2023-07-20T11:37:19;11.05;;;4.47;;
71148;SDS011;59072;42.144;25.200;2023-07-20T11:39:45;8.93;;;4.40;;
71148;SDS011;59072;42.144;25.200;2023-07-20T11:42:13;9.43;;;3.83;;
71148;SDS011;59072;42.144;25.200;2023-07-20T11:44:41;9.05;;;4.50;;
71148;SDS011;59072;42.144;25.200;2023-07-20T11:47:08;11.33;;;4.43;;
71148;SDS011;59072;42.144;25.200;2023-07-20T11:49:43;10.85;;;4.53;;
71148;SDS011;59072;42.144;25.200;2023-07-20T11:52:16;9.35;;;4.57;;
71148;SDS011;59072;42.144;25.200;2023-07-20T11:54:42;9.75;;;4.50;;
71148;SDS011;59072;42.144;25.200;2023-07-20T11:57:16;10.23;;;5.05;;
71148;SDS011;59072;42.144;25.200;2023-07-20T12:02:37;10.98;;;4.57;;
71148;SDS011;59072;42.144;25.200;2023-07-20T12:05:05;8.40;;;4.38;;
71148;SDS011;59072;42.144;25.200;2023-07-20T12:07:35;8.07;;;4.50;;
71148;SDS011;59072;42.144;25.200;2023-07-20T12:10:11;10.88;;;5.95;;
71148;SDS011;59072;42.144;25.200;2023-07-20T12:12:40;8.80;;;4.65;;
71148;SDS011;59072;42.144;25.200;2023-07-20T12:15:20;9.70;;;4.35;;
71148;SDS011;59072;42.144;25.200;2023-07-20T12:17:46;10.45;;;4.45;;
71148;SDS011;59072;42.144;25.200;2023-07-20T12:23:08;12.52;;;4.60;;
71148;SDS011;59072;42.144;25.200;2023-07-20T12:25:43;9.30;;;4.25;;
71148;SDS011;59072;42.144;25.200;2023-07-20T12:28:13;11.30;;;4.28;;
71148;SDS011;59072;42.144;25.200;2023-07-20T12:30:46;8.80;;;5.07;;
71148;SDS011;59072;42.144;25.200;2023-07-20T12:33:21;9.23;;;5.10;;
71148;SDS011;59072;42.144;25.200;2023-07-20T12:35:49;10.73;;;4.70;;
71148;SDS011;59072;42.144;25.200;2023-07-20T12:38:20;12.85;;;5.55;;
71148;SDS011;59072;42.144;25.200;2023-07-20T12:40:46;8.77;;;4.57;;
71148;SDS011;59072;42.144;25.200;2023-07-20T12:43:12;10.68;;;6.90;;
71148;SDS011;59072;42.144;25.200;2023-07-20T12:45:41;11.90;;;5.60;;
71148;SDS011;59072;42.144;25.200;2023-07-20T12:48:07;11.73;;;5.20;;
71148;SDS011;59072;42.144;25.200;2023-07-20T12:50:32;11.30;;;5.20;;
71148;SDS011;59072;42.144;25.200;2023-07-20T12:52:58;7.60;;;4.80;;
71148;SDS011;59072;42.144;25.200;2023-07-20T12:55:23;11.43;;;4.63;;
71148;SDS011;59072;42.144;25.200;2023-07-20T12:57:54;18.73;;;6.03;;
71148;SDS011;59072;42.144;25.200;2023-07-20T13:00:20;14.57;;;5.03;;
71148;SDS011;59072;42.144;25.200;2023-07-20T13:02:47;11.35;;;5.38;;
71148;SDS011;59072;42.144;25.200;2023-07-20T13:05:12;13.47;;;6.60;;
71148;SDS011;59072;42.144;25.200;2023-07-20T13:07:38;10.37;;;5.43;;
71148;SDS011;59072;42.144;25.200;2023-07-20T13:10:10;10.43;;;5.20;;
71148;SDS011;59072;42.144;25.200;2023-07-20T13:12:41;10.30;;;4.90;;
71148;SDS011;59072;42.144;25.200;2023-07-20T13:15:07;16.10;;;6.37;;
71148;SDS011;59072;42.144;25.200;2023-07-20T13:17:34;15.20;;;5.40;;
71148;SDS011;59072;42.144;25.200;2023-07-20T13:22:26;10.65;;;5.10;;
71148;SDS011;59072;42.144;25.200;2023-07-20T13:24:52;8.23;;;5.50;;
71148;SDS011;59072;42.144;25.200;2023-07-20T13:27:18;11.70;;;5.43;;
71148;SDS011;59072;42.144;25.200;2023-07-20T13:29:43;16.40;;;5.57;;
71148;SDS011;59072;42.144;25.200;2023-07-20T13:32:09;12.07;;;5.33;;
71148;SDS011;59072;42.144;25.200;2023-07-20T13:34:35;11.80;;;5.73;;
71148;SDS011;59072;42.144;25.200;2023-07-20T13:37:01;11.37;;;6.37;;
71148;SDS011;59072;42.144;25.200;2023-07-20T13:39:27;9.38;;;5.40;;
71148;SDS011;59072;42.144;25.200;2023-07-20T13:41:53;9.77;;;4.87;;
71148;SDS011;59072;42.144;25.200;2023-07-20T13:44:19;9.80;;;6.30;;
71148;SDS011;59072;42.144;25.200;2023-07-20T13:46:50;11.27;;;7.80;;
71148;SDS011;59072;42.144;25.200;2023-07-20T13:49:15;8.25;;;5.07;;
71148;SDS011;59072;42.144;25.200;2023-07-20T13:51:44;11.68;;;5.93;;
71148;SDS011;59072;42.144;25.200;2023-07-20T13:54:09;11.77;;;5.77;;
71148;SDS011;59072;42.144;25.200;2023-07-20T13:56:35;8.97;;;5.10;;
71148;SDS011;59072;42.144;25.200;2023-07-20T13:59:00;12.57;;;5.67;;
71148;SDS011;59072;42.144;25.200;2023-07-20T14:01:26;11.93;;;6.43;;
71148;SDS011;59072;42.144;25.200;2023-07-20T14:03:57;8.80;;;5.45;;
71148;SDS011;59072;42.144;25.200;2023-07-20T14:06:23;9.65;;;5.53;;
71148;SDS011;59072;42.144;25.200;2023-07-20T14:08:50;11.18;;;5.30;;
71148;SDS011;59072;42.144;25.200;2023-07-20T14:11:18;9.07;;;5.25;;
71148;SDS011;59072;42.144;25.200;2023-07-20T14:13:44;8.27;;;4.90;;
71148;SDS011;59072;42.144;25.200;2023-07-20T14:16:12;8.80;;;5.45;;
71148;SDS011;59072;42.144;25.200;2023-07-20T14:18:37;8.20;;;5.37;;
71148;SDS011;59072;42.144;25.200;2023-07-20T14:21:03;8.77;;;5.27;;
71148;SDS011;59072;42.144;25.200;2023-07-20T14:23:30;11.50;;;4.88;;
71148;SDS011;59072;42.144;25.200;2023-07-20T14:25:55;11.07;;;5.13;;
71148;SDS011;59072;42.144;25.200;2023-07-20T14:28:21;10.27;;;5.03;;
71148;SDS011;59072;42.144;25.200;2023-07-20T14:30:46;11.53;;;5.67;;
71148;SDS011;59072;42.144;25.200;2023-07-20T14:33:12;10.63;;;4.83;;
71148;SDS011;59072;42.144;25.200;2023-07-20T14:35:37;9.77;;;5.00;;
71148;SDS011;59072;42.144;25.200;2023-07-20T14:38:03;10.53;;;5.13;;
71148;SDS011;59072;42.144;25.200;2023-07-20T14:40:28;11.23;;;5.23;;
71148;SDS011;59072;42.144;25.200;2023-07-20T14:42:54;10.70;;;4.93;;
71148;SDS011;59072;42.144;25.200;2023-07-20T14:45:20;9.38;;;4.80;;
71148;SDS011;59072;42.144;25.200;2023-07-20T14:47:51;11.00;;;5.40;;
71148;SDS011;59072;42.144;25.200;2023-07-20T14:50:21;11.95;;;5.90;;
71148;SDS011;59072;42.144;25.200;2023-07-20T14:52:46;11.55;;;6.43;;
71148;SDS011;59072;42.144;25.200;2023-07-20T14:55:12;11.67;;;5.27;;
71148;SDS011;59072;42.144;25.200;2023-07-20T14:57:37;12.00;;;5.43;;
71148;SDS011;59072;42.144;25.200;2023-07-20T15:00:04;20.55;;;5.97;;